createdAt,value
2023-08-12T00:00:12.674Z,7.10
2023-08-12T00:02:45.163Z,8.75
2023-08-12T00:05:14.470Z,6.78
2023-08-12T00:07:43.388Z,7.97
2023-08-12T00:10:14.088Z,6.47
2023-08-12T00:12:42.325Z,6.47
2023-08-12T00:15:12.510Z,6.57
2023-08-12T00:17:43.189Z,7.18
2023-08-12T00:20:13.561Z,8.40
2023-08-12T00:22:42.766Z,5.90
2023-08-12T00:25:10.984Z,9.07
2023-08-12T00:27:40.243Z,10.80
2023-08-12T00:30:09.174Z,7.05
2023-08-12T00:32:40.003Z,6.65
2023-08-12T00:35:09.093Z,6.25
2023-08-12T00:37:37.098Z,4.32
2023-08-12T00:40:07.931Z,5.88
2023-08-12T00:42:35.922Z,8.60
2023-08-12T00:45:05.607Z,7.85
2023-08-12T00:50:03.463Z,8.70
2023-08-12T00:52:32.018Z,10.45
2023-08-12T00:55:00.100Z,5.90
2023-08-12T00:57:29.148Z,7.40
2023-08-12T00:59:58.701Z,6.45
2023-08-12T01:02:26.899Z,8.25
2023-08-12T01:04:56.130Z,6.63
2023-08-12T01:07:25.955Z,7.57
2023-08-12T01:09:54.345Z,8.00
2023-08-12T01:12:28.753Z,11.18
2023-08-12T01:15:11.951Z,5.65
2023-08-12T01:17:43.630Z,12.40
2023-08-12T01:20:14.115Z,8.32
2023-08-12T01:22:47.848Z,8.38
2023-08-12T01:25:18.060Z,8.40
2023-08-12T01:27:47.310Z,9.30
2023-08-12T01:32:55.758Z,9.43
2023-08-12T01:35:28.304Z,10.77
2023-08-12T01:38:00.414Z,9.50
2023-08-12T01:40:31.480Z,11.80
2023-08-12T01:43:02.050Z,12.38
2023-08-12T01:45:33.096Z,10.35
2023-08-12T01:48:01.730Z,12.30
2023-08-12T01:50:29.944Z,13.43
2023-08-12T01:53:00.030Z,14.57
2023-08-12T01:55:29.404Z,14.55
2023-08-12T01:57:58.494Z,13.95
2023-08-12T02:00:26.988Z,17.40
2023-08-12T02:02:55.203Z,16.95
2023-08-12T02:05:23.663Z,16.45
2023-08-12T02:07:52.200Z,17.40
2023-08-12T02:10:21.193Z,18.05
2023-08-12T02:12:50.552Z,17.98
2023-08-12T02:15:19.319Z,19.95
2023-08-12T02:17:47.869Z,20.48
2023-08-12T02:20:16.052Z,22.88
2023-08-12T02:22:44.576Z,18.40
2023-08-12T02:25:13.059Z,21.80
2023-08-12T02:27:41.187Z,21.48
2023-08-12T02:30:13.634Z,21.80
2023-08-12T02:32:44.540Z,20.75
2023-08-12T02:35:13.550Z,23.45
2023-08-12T02:37:41.501Z,27.90
2023-08-12T02:40:11.712Z,26.45
2023-08-12T02:42:40.600Z,29.42
2023-08-12T02:45:08.976Z,31.20
2023-08-12T02:47:38.888Z,28.23
2023-08-12T02:52:35.799Z,19.80
2023-08-12T02:55:05.040Z,22.17
2023-08-12T02:57:33.090Z,20.93
2023-08-12T03:00:01.797Z,25.83
2023-08-12T03:02:29.891Z,23.55
2023-08-12T03:04:59.323Z,28.52
2023-08-12T03:07:28.176Z,29.10
2023-08-12T03:09:56.251Z,27.85
2023-08-12T03:12:24.402Z,26.15
2023-08-12T03:14:53.295Z,33.33
2023-08-12T03:17:21.414Z,27.73
2023-08-12T03:19:50.798Z,27.67
2023-08-12T03:22:20.290Z,30.70
2023-08-12T03:24:51.904Z,27.83
2023-08-12T03:27:19.969Z,28.75
2023-08-12T03:29:48.886Z,27.73
2023-08-12T03:32:18.258Z,26.95
2023-08-12T03:34:46.327Z,29.38
2023-08-12T03:37:14.639Z,30.75
2023-08-12T03:39:45.877Z,28.08
2023-08-12T03:42:15.740Z,29.05
2023-08-12T03:44:44.746Z,29.75
2023-08-12T03:47:13.392Z,30.43
2023-08-12T03:49:42.970Z,30.42
2023-08-12T03:52:11.526Z,33.72
2023-08-12T03:54:39.567Z,28.75
2023-08-12T03:57:09.748Z,31.38
2023-08-12T03:59:39.122Z,27.45
2023-08-12T04:02:08.674Z,30.30
2023-08-12T04:04:36.665Z,34.00
2023-08-12T04:07:05.111Z,35.08
2023-08-12T04:09:33.161Z,32.75
2023-08-12T04:12:01.182Z,34.17
2023-08-12T04:14:31.688Z,37.28
2023-08-12T04:16:59.782Z,38.70
2023-08-12T04:19:27.787Z,48.67
2023-08-12T04:21:56.779Z,49.58
2023-08-12T04:24:24.851Z,51.35
2023-08-12T04:26:53.307Z,52.28
2023-08-12T04:29:21.400Z,59.83
2023-08-12T04:31:51.169Z,60.13
2023-08-12T04:34:20.117Z,61.83
2023-08-12T04:36:48.093Z,60.15
2023-08-12T04:39:17.070Z,63.17
2023-08-12T04:41:47.926Z,61.55
2023-08-12T04:44:17.580Z,60.45
2023-08-12T04:46:45.786Z,52.10
2023-08-12T04:49:15.200Z,53.92
2023-08-12T04:51:44.926Z,50.92
2023-08-12T04:54:13.922Z,51.83
2023-08-12T04:56:44.644Z,47.72
2023-08-12T04:59:12.976Z,52.83
2023-08-12T05:01:54.476Z,47.50
2023-08-12T05:04:32.596Z,47.05
2023-08-12T05:07:00.605Z,44.40
2023-08-12T05:09:29.175Z,47.88
2023-08-12T05:11:57.166Z,51.83
2023-08-12T05:14:25.561Z,49.33
2023-08-12T05:16:54.081Z,49.17
2023-08-12T05:19:22.411Z,50.58
2023-08-12T05:21:52.685Z,48.37
2023-08-12T05:24:21.598Z,50.00
2023-08-12T05:26:49.633Z,49.00
2023-08-12T05:29:18.498Z,46.63
2023-08-12T05:31:46.589Z,43.00
2023-08-12T05:34:14.574Z,42.03
2023-08-12T05:36:42.732Z,38.97
2023-08-12T05:39:12.676Z,39.50
2023-08-12T05:41:41.085Z,44.70
2023-08-12T05:44:09.282Z,44.10
2023-08-12T05:46:37.767Z,38.35
2023-08-12T05:49:06.252Z,38.72
2023-08-12T05:51:34.226Z,40.10
2023-08-12T05:54:03.230Z,36.67
2023-08-12T05:56:32.694Z,38.42
2023-08-12T05:59:01.587Z,37.40
2023-08-12T06:01:29.566Z,40.17
2023-08-12T06:03:58.532Z,33.08
2023-08-12T06:06:26.616Z,32.92
2023-08-12T06:08:54.570Z,28.30
2023-08-12T06:11:23.457Z,34.00
2023-08-12T06:13:52.810Z,33.03
2023-08-12T06:16:21.727Z,28.02
2023-08-12T06:18:49.724Z,26.25
2023-08-12T06:21:18.783Z,24.08
2023-08-12T06:23:47.166Z,22.98
2023-08-12T06:26:15.568Z,22.23
2023-08-12T06:28:43.629Z,23.13
2023-08-12T06:31:13.054Z,19.33
2023-08-12T06:33:41.671Z,18.65
2023-08-12T06:36:09.653Z,17.60
2023-08-12T06:38:37.682Z,18.63
2023-08-12T06:41:05.741Z,18.85
2023-08-12T06:43:33.744Z,18.63
2023-08-12T06:46:01.798Z,19.05
2023-08-12T06:48:31.431Z,16.10
2023-08-12T06:51:00.364Z,16.80
2023-08-12T06:53:28.750Z,16.63
2023-08-12T06:55:57.609Z,15.73
2023-08-12T06:58:25.536Z,17.75
2023-08-12T07:00:54.494Z,15.35
2023-08-12T07:03:23.035Z,14.88
2023-08-12T07:05:52.506Z,14.77
2023-08-12T07:08:20.561Z,14.68
2023-08-12T07:10:49.065Z,13.05
2023-08-12T07:13:17.514Z,16.92
2023-08-12T07:15:45.978Z,12.25
2023-08-12T07:18:14.050Z,11.50
2023-08-12T07:20:42.503Z,14.30
2023-08-12T07:23:11.883Z,12.48
2023-08-12T07:25:40.123Z,13.77
2023-08-12T07:28:08.261Z,13.95
2023-08-12T07:30:37.347Z,11.45
2023-08-12T07:33:06.685Z,11.20
2023-08-12T07:35:34.908Z,12.05
2023-08-12T07:38:03.055Z,11.15
2023-08-12T07:40:32.755Z,11.40
2023-08-12T07:45:29.032Z,11.45
2023-08-12T07:47:57.229Z,14.23
2023-08-12T07:50:25.853Z,13.27
2023-08-12T07:52:54.565Z,12.05
2023-08-12T07:55:24.915Z,11.93
2023-08-12T07:57:56.186Z,12.10
2023-08-12T08:00:24.418Z,11.57
2023-08-12T08:02:52.413Z,12.55
2023-08-12T08:05:21.394Z,11.35
2023-08-12T08:07:49.422Z,13.30
2023-08-12T08:10:17.706Z,13.95
2023-08-12T08:12:46.114Z,14.05
2023-08-12T08:15:15.488Z,14.18
2023-08-12T08:17:43.736Z,13.93
2023-08-12T08:20:12.360Z,13.90
2023-08-12T08:22:40.734Z,16.33
2023-08-12T08:25:10.012Z,15.52
2023-08-12T08:27:38.469Z,15.70
2023-08-12T08:30:07.371Z,16.52
2023-08-12T08:32:36.740Z,16.20
2023-08-12T08:35:06.057Z,16.77
2023-08-12T08:37:34.138Z,17.03
2023-08-12T08:40:02.601Z,19.17
2023-08-12T08:42:31.104Z,16.80
2023-08-12T08:45:04.739Z,16.73
2023-08-12T08:47:33.612Z,15.63
2023-08-12T08:50:03.618Z,16.13
2023-08-12T08:52:32.522Z,15.63
2023-08-12T08:55:04.196Z,16.50
2023-08-12T08:57:43.664Z,13.85
2023-08-12T09:00:18.195Z,15.30
2023-08-12T09:02:49.401Z,15.57
2023-08-12T09:05:19.797Z,15.73
2023-08-12T09:07:49.541Z,12.85
2023-08-12T09:12:48.666Z,14.05
2023-08-12T09:15:20.039Z,14.45
2023-08-12T09:17:48.139Z,15.65
2023-08-12T09:20:17.151Z,13.30
2023-08-12T09:22:47.027Z,14.65
2023-08-12T09:25:15.052Z,14.25
2023-08-12T09:27:42.991Z,12.32
2023-08-12T09:30:14.818Z,12.10
2023-08-12T09:32:44.400Z,12.68
2023-08-12T09:35:19.400Z,11.88
2023-08-12T09:37:48.897Z,12.32
2023-08-12T09:40:17.220Z,8.57
2023-08-12T09:42:49.840Z,8.40
2023-08-12T09:45:21.603Z,9.38
2023-08-12T09:47:50.487Z,6.75
2023-08-12T09:50:18.683Z,7.45
2023-08-12T09:52:49.010Z,4.40
2023-08-12T09:55:19.340Z,5.38
2023-08-12T09:57:50.156Z,4.60
2023-08-12T10:00:20.681Z,5.70
2023-08-12T10:02:49.891Z,8.68
2023-08-12T10:05:24.040Z,6.05
2023-08-12T10:07:55.837Z,4.68
2023-08-12T10:10:25.225Z,4.45
2023-08-12T10:12:54.043Z,5.80
2023-08-12T10:15:23.744Z,4.40
2023-08-12T10:17:54.169Z,4.30
2023-08-12T10:20:24.164Z,4.78
2023-08-12T10:22:54.347Z,4.55
2023-08-12T10:25:24.126Z,3.20
2023-08-12T10:27:54.126Z,3.90
2023-08-12T10:30:23.164Z,3.00
2023-08-12T10:32:51.955Z,3.83
2023-08-12T10:35:20.540Z,3.13
2023-08-12T10:37:52.003Z,4.03
2023-08-12T10:40:25.925Z,3.30
2023-08-12T10:42:54.270Z,3.17
2023-08-12T10:45:22.350Z,3.88
2023-08-12T10:47:54.594Z,3.00
2023-08-12T10:50:27.773Z,3.70
2023-08-12T10:52:56.892Z,3.00
2023-08-12T10:55:29.892Z,3.50
2023-08-12T10:58:00.613Z,2.90
2023-08-12T11:00:31.272Z,3.00
2023-08-12T11:03:00.129Z,3.80
2023-08-12T11:05:38.729Z,1.98
2023-08-12T11:08:08.521Z,2.03
2023-08-12T11:10:37.940Z,3.00
2023-08-12T11:13:06.447Z,2.00
2023-08-12T11:15:38.434Z,2.17
2023-08-12T11:18:07.732Z,2.50
2023-08-12T11:20:36.941Z,2.65
2023-08-12T11:23:06.796Z,2.20
2023-08-12T11:28:06.443Z,4.07
2023-08-12T11:30:34.695Z,1.40
2023-08-12T11:33:04.286Z,2.72
2023-08-12T11:35:32.892Z,1.67
2023-08-12T11:38:01.475Z,2.53
2023-08-12T11:40:30.465Z,1.95
2023-08-12T11:42:59.219Z,1.93
2023-08-12T11:45:29.551Z,2.30
2023-08-12T11:47:59.024Z,2.08
2023-08-12T11:50:28.744Z,2.05
2023-08-12T11:52:59.030Z,1.50
2023-08-12T11:55:27.761Z,0.90
2023-08-12T11:57:56.300Z,1.73
2023-08-12T12:00:29.440Z,1.35
2023-08-12T12:02:58.651Z,1.90
2023-08-12T12:05:28.968Z,1.63
2023-08-12T12:07:57.420Z,1.33
2023-08-12T12:10:34.583Z,1.63
2023-08-12T12:13:05.966Z,2.03
2023-08-12T12:15:41.502Z,1.40
2023-08-12T12:18:12.672Z,1.50
2023-08-12T12:20:45.689Z,1.85
2023-08-12T12:23:13.793Z,1.10
2023-08-12T12:25:43.373Z,1.30
2023-08-12T12:28:11.792Z,1.70
2023-08-12T12:30:41.190Z,2.08
2023-08-12T12:33:10.181Z,2.03
2023-08-12T12:35:51.650Z,2.88
2023-08-12T12:38:25.273Z,3.17
2023-08-12T12:40:53.254Z,2.00
2023-08-12T12:43:21.326Z,1.90
2023-08-12T12:45:51.062Z,2.33
2023-08-12T12:48:19.140Z,2.20
2023-08-12T12:50:47.816Z,1.63
2023-08-12T12:53:15.827Z,3.83
2023-08-12T12:55:45.483Z,2.00
2023-08-12T12:58:14.483Z,2.80
2023-08-12T13:00:42.456Z,3.38
2023-08-12T13:03:13.457Z,3.05
2023-08-12T13:05:41.707Z,1.83
2023-08-12T13:08:09.993Z,2.00
2023-08-12T13:10:38.472Z,2.15
2023-08-12T13:13:06.605Z,2.45
2023-08-12T13:15:35.643Z,2.75
2023-08-12T13:18:04.138Z,4.00
2023-08-12T13:20:34.141Z,2.20
2023-08-12T13:23:02.712Z,2.45
2023-08-12T13:25:32.552Z,3.40
2023-08-12T13:28:01.714Z,4.20
2023-08-12T13:30:30.415Z,5.10
2023-08-12T13:33:01.703Z,6.65
2023-08-12T13:35:30.199Z,4.63
2023-08-12T13:38:00.080Z,3.58
2023-08-12T13:40:28.295Z,2.78
2023-08-12T13:42:58.159Z,3.72
2023-08-12T13:45:26.366Z,3.65
2023-08-12T13:47:54.530Z,4.97
2023-08-12T13:50:22.719Z,2.47
2023-08-12T13:52:52.055Z,4.38
2023-08-12T13:55:21.473Z,6.40
2023-08-12T13:57:49.514Z,2.15
2023-08-12T14:00:18.585Z,2.83
2023-08-12T14:02:48.665Z,2.17
2023-08-12T14:05:16.883Z,2.20
2023-08-12T14:07:45.580Z,2.28
2023-08-12T14:10:13.658Z,2.38
2023-08-12T14:12:43.609Z,2.00
2023-08-12T14:15:12.266Z,2.95
2023-08-12T14:17:40.970Z,4.68
2023-08-12T14:20:11.752Z,3.70
2023-08-12T14:22:39.771Z,3.90
2023-08-12T14:25:09.132Z,3.97
2023-08-12T14:27:37.709Z,4.32
2023-08-12T14:30:08.451Z,4.00
2023-08-12T14:32:36.734Z,3.92
2023-08-12T14:35:06.666Z,6.25
2023-08-12T14:37:34.773Z,4.65
2023-08-12T14:40:05.667Z,4.60
2023-08-12T14:42:33.754Z,6.13
2023-08-12T14:45:01.771Z,4.75
2023-08-12T14:47:31.788Z,5.85
2023-08-12T14:49:59.993Z,5.15
2023-08-12T14:52:28.424Z,4.07
2023-08-12T14:54:56.819Z,4.05
2023-08-12T14:57:24.825Z,4.57
2023-08-12T14:59:52.845Z,5.65
2023-08-12T15:02:22.776Z,4.55
2023-08-12T15:04:53.166Z,5.10
2023-08-12T15:07:23.044Z,4.57
2023-08-12T15:09:53.084Z,4.95
2023-08-12T15:14:49.889Z,3.67
2023-08-12T15:17:18.601Z,3.95
2023-08-12T15:19:46.604Z,3.93
2023-08-12T15:22:16.094Z,7.13
2023-08-12T15:27:12.311Z,4.40
2023-08-12T15:29:40.671Z,4.20
2023-08-12T15:32:08.769Z,5.03
2023-08-12T15:34:36.918Z,5.00
2023-08-12T15:37:07.507Z,4.32
2023-08-12T15:39:37.796Z,4.07
2023-08-12T15:42:06.512Z,4.47
2023-08-12T15:44:34.999Z,3.47
2023-08-12T15:47:02.998Z,5.03
2023-08-12T15:49:35.173Z,4.63
2023-08-12T15:52:03.600Z,3.47
2023-08-12T15:54:31.654Z,4.07
2023-08-12T15:57:02.233Z,4.90
2023-08-12T15:59:30.347Z,4.25
2023-08-12T16:01:58.711Z,3.75
2023-08-12T16:04:27.999Z,4.53
2023-08-12T16:06:56.059Z,6.43
2023-08-12T16:09:24.266Z,8.65
2023-08-12T16:11:52.692Z,4.10
2023-08-12T16:14:22.217Z,4.28
2023-08-12T16:16:50.737Z,2.83
2023-08-12T16:19:18.955Z,2.33
2023-08-12T16:21:46.982Z,3.33
2023-08-12T16:24:15.493Z,3.90
2023-08-12T16:26:43.906Z,2.42
2023-08-12T16:29:12.339Z,1.77
2023-08-12T16:31:42.249Z,1.55
2023-08-12T16:34:10.448Z,5.90
2023-08-12T16:36:38.889Z,3.33
2023-08-12T16:39:08.687Z,2.15
2023-08-12T16:41:38.425Z,3.17
2023-08-12T16:44:06.722Z,1.63
2023-08-12T16:46:34.693Z,2.88
2023-08-12T16:49:05.231Z,0.98
2023-08-12T16:51:34.232Z,1.30
2023-08-12T16:54:02.182Z,1.23
2023-08-12T16:56:31.851Z,1.38
2023-08-12T16:59:01.286Z,1.02
2023-08-12T17:01:29.400Z,0.90
2023-08-12T17:03:57.948Z,2.38
2023-08-12T17:06:27.319Z,4.25
2023-08-12T17:08:55.809Z,1.67
2023-08-12T17:11:24.353Z,1.63
2023-08-12T17:13:52.485Z,2.80
2023-08-12T17:16:20.549Z,1.55
2023-08-12T17:18:49.443Z,1.92
2023-08-12T17:21:17.478Z,2.60
2023-08-12T17:23:47.325Z,2.63
2023-08-12T17:26:15.801Z,2.35
2023-08-12T17:28:43.760Z,2.35
2023-08-12T17:31:13.004Z,2.47
2023-08-12T17:33:41.683Z,2.72
2023-08-12T17:36:09.685Z,1.88
2023-08-12T17:38:38.144Z,3.33
2023-08-12T17:41:07.674Z,3.15
2023-08-12T17:46:04.046Z,2.85
2023-08-12T17:48:33.012Z,2.78
2023-08-12T17:51:01.053Z,3.08
2023-08-12T17:53:29.564Z,3.80
2023-08-12T17:55:57.608Z,4.25
2023-08-12T17:58:27.581Z,4.03
2023-08-12T18:00:56.556Z,2.95
2023-08-12T18:03:24.675Z,4.20
2023-08-12T18:05:53.767Z,4.70
2023-08-12T18:08:21.959Z,4.32
2023-08-12T18:10:49.969Z,5.07
2023-08-12T18:13:21.478Z,3.75
2023-08-12T18:15:51.226Z,3.28
2023-08-12T18:18:20.245Z,5.28
2023-08-12T18:20:48.755Z,5.55
2023-08-12T18:23:17.686Z,5.07
2023-08-12T18:25:45.969Z,4.45
2023-08-12T18:28:14.051Z,4.38
2023-08-12T18:30:42.999Z,4.28
2023-08-12T18:33:14.974Z,3.92
2023-08-12T18:35:43.853Z,4.75
2023-08-12T18:38:11.931Z,4.75
2023-08-12T18:40:39.964Z,4.70
2023-08-12T18:43:08.894Z,5.20
2023-08-12T18:45:37.613Z,3.72
2023-08-12T18:48:07.742Z,4.78
2023-08-12T18:53:05.927Z,4.28
2023-08-12T18:55:34.865Z,5.50
2023-08-12T18:58:03.097Z,5.30
2023-08-12T19:00:31.439Z,4.53
2023-08-12T19:03:00.041Z,5.60
2023-08-12T19:05:28.688Z,6.13
2023-08-12T19:07:58.540Z,4.75
2023-08-12T19:10:26.689Z,5.65
2023-08-12T19:12:55.592Z,7.20
2023-08-12T19:15:24.639Z,6.22
2023-08-12T19:17:52.763Z,7.40
2023-08-12T19:20:21.099Z,6.28
2023-08-12T19:22:50.498Z,6.93
2023-08-12T19:25:20.064Z,5.20
2023-08-12T19:27:48.107Z,5.75
2023-08-12T19:30:16.247Z,5.10
2023-08-12T19:32:52.737Z,7.07
2023-08-12T19:35:22.305Z,7.88
2023-08-12T19:37:53.477Z,6.78
2023-08-12T19:40:23.068Z,8.18
2023-08-12T19:42:51.094Z,6.40
2023-08-12T19:45:20.647Z,8.48
2023-08-12T19:47:49.153Z,9.38
2023-08-12T19:50:17.657Z,7.07
2023-08-12T19:52:45.675Z,8.95
2023-08-12T19:55:14.217Z,12.48
2023-08-12T19:59:26.545Z,7.35
2023-08-12T20:01:54.631Z,7.72
2023-08-12T20:04:24.570Z,5.97
2023-08-12T20:06:53.098Z,6.80
2023-08-12T20:09:21.147Z,7.45
2023-08-12T20:11:49.937Z,9.95
2023-08-12T20:14:17.972Z,6.78
2023-08-12T20:16:47.803Z,8.00
2023-08-12T20:19:16.431Z,6.65
2023-08-12T20:21:44.621Z,9.02
2023-08-12T20:24:12.830Z,7.63
2023-08-12T20:26:40.804Z,5.20
2023-08-12T20:29:09.867Z,5.53
2023-08-12T20:31:37.870Z,8.45
2023-08-12T20:34:08.594Z,7.55
2023-08-12T20:39:05.871Z,7.23
2023-08-12T20:41:35.497Z,5.72
2023-08-12T20:44:03.732Z,6.45
2023-08-12T20:46:31.902Z,5.40
2023-08-12T20:49:00.565Z,6.05
2023-08-12T20:51:29.945Z,6.25
2023-08-12T20:53:58.578Z,4.95
2023-08-12T20:56:26.707Z,9.52
2023-08-12T20:58:54.645Z,8.98
2023-08-12T21:01:23.859Z,7.05
2023-08-12T21:03:52.079Z,7.53
2023-08-12T21:06:20.143Z,9.73
2023-08-12T21:08:50.604Z,9.32
2023-08-12T21:11:19.157Z,11.88
2023-08-12T21:13:48.082Z,9.55
2023-08-12T21:16:16.135Z,5.47
2023-08-12T21:18:45.124Z,8.02
2023-08-12T21:21:13.174Z,9.35
2023-08-12T21:23:41.148Z,11.38
2023-08-12T21:26:11.228Z,8.77
2023-08-12T21:28:39.467Z,11.00
2023-08-12T21:31:07.495Z,6.13
2023-08-12T21:33:36.442Z,5.93
2023-08-12T21:36:04.839Z,8.20
2023-08-12T21:38:32.866Z,5.40
2023-08-12T21:41:02.335Z,5.45
2023-08-12T21:43:57.805Z,8.13
2023-08-12T21:46:32.702Z,6.68
2023-08-12T21:49:01.857Z,8.60
2023-08-12T21:51:30.364Z,8.27
2023-08-12T21:53:59.414Z,8.27
2023-08-12T21:56:27.553Z,6.88
2023-08-12T21:58:57.717Z,6.25
2023-08-12T22:01:26.042Z,6.30
2023-08-12T22:03:54.382Z,9.18
2023-08-12T22:06:22.468Z,9.35
2023-08-12T22:08:51.384Z,12.98
2023-08-12T22:11:19.429Z,4.80
2023-08-12T22:13:48.379Z,4.85
2023-08-12T22:16:17.786Z,7.13
2023-08-12T22:18:47.005Z,7.22
2023-08-12T22:21:15.116Z,8.57
2023-08-12T22:23:43.095Z,8.05
2023-08-12T22:26:12.557Z,6.32
2023-08-12T22:28:40.842Z,5.70
2023-08-12T22:31:09.076Z,8.48
2023-08-12T22:33:39.574Z,8.88
2023-08-12T22:36:11.711Z,8.25
2023-08-12T22:38:41.832Z,11.60
2023-08-12T22:41:10.063Z,10.75
2023-08-12T22:43:38.703Z,11.20
2023-08-12T22:46:07.772Z,9.65
2023-08-12T22:48:35.814Z,9.38
2023-08-12T22:51:05.829Z,9.43
2023-08-12T22:53:34.200Z,8.23
2023-08-12T22:56:02.724Z,9.93
2023-08-12T22:58:30.840Z,8.48
2023-08-12T23:00:59.302Z,7.38
2023-08-12T23:03:27.920Z,8.25
2023-08-12T23:05:55.948Z,6.60
2023-08-12T23:08:25.448Z,7.55
2023-08-12T23:10:55.408Z,7.60
2023-08-12T23:13:23.929Z,8.85
2023-08-12T23:15:52.774Z,9.80
2023-08-12T23:18:21.284Z,11.40
2023-08-12T23:20:49.807Z,5.75
2023-08-12T23:23:17.940Z,7.65
2023-08-12T23:25:47.808Z,10.57
2023-08-12T23:28:15.803Z,10.65
2023-08-12T23:30:44.303Z,14.23
2023-08-12T23:33:12.755Z,10.48
2023-08-12T23:35:41.587Z,12.25
2023-08-12T23:38:10.727Z,13.05
2023-08-12T23:40:38.758Z,12.10
2023-08-12T23:43:09.087Z,12.77
2023-08-12T23:45:38.109Z,12.23
2023-08-12T23:48:06.843Z,13.18
2023-08-12T23:50:35.509Z,12.25
2023-08-12T23:53:04.630Z,11.23
2023-08-12T23:55:34.727Z,13.90
2023-08-12T23:58:02.912Z,12.95
